Aérodrome :
LOGIN :

S'inscrire | Disclaimer

   EN    FR    IT 

 










Légende :    VFR   VFR Marginal   IFR   IFR Intensif   IFR Très Intensif
Visi : 
Plafond : 
>= 8 km
>= 3000ft
5 à 8 km
1000 à 3000 ft
1500m à 5 km
500 à 1000 ft
800 à 1500m
200 à 500 ft
< 800m
< 200 ft
Symboles :   Orages  Brouillard  Fortes neiges  Fortes précipitations  Vent > 20 kt
SIGMETs :   Divers  Orages  Givrage  Turbulence  Onde Orograph.  Cendres Volcan.






- Altitude de l'aérodrome : 135 ft
- Code IATA : EDI


EGPH - Edinburgh

DERNIER METAR :
  • 110550Z 22021KT CAVOK 04/02 Q0993

METARs EXPIRÉS :
  • 110520Z 22022KT 9999 -RA FEW026 04/02 Q0993
  • 110450Z 22020KT 9999 SCT028 04/02 Q0993
  • 110420Z 22019KT 9999 FEW024 04/02 Q0994
  • 110350Z 23017KT 9999 SCT023 05/03 Q0994
  • 110320Z 24010KT 9999 -RA BKN009 05/04 Q0995

TAF TAF EGPH
Valide du 11 à 06h jusqu'au 12 à 06h UTC


110500Z 1106/1206 24015KT 9999 SCT020
PROB40
TEMPO 1106/1118 26025G35KT 7000 SHRA BKN012
PROB30
TEMPO 1118/1206 23015G25KT 7000 SHRA BKN010
ATIS : +44 131 339 2823



MET'MAP, la Météo Aéronautique d'un coup d'oeil ! - Copyright ORBIFLY Décembre 2007 - Disclaimer

ORBIFLY MET'MAP TEAM :

Programmation & Développement : Alexandra Zaïnal
Sur une idée originale de : Baudouin d'Aumeries
Assistance à la programmation : Marc-Olivier Méhu
Soutien technique & logistique : Manuel Goepfert

Contact : metmap@orbifly.com




SOURCES & CREDITS :

   NOAA